sensor_id;sensor_type;location;lat;lon;timestamp;temperature;humidity
15143;DHT22;7672;50.834;6.286;2023-03-24T01:54:48;15.10;99.90
15143;DHT22;7672;50.834;6.286;2023-03-24T01:57:29;15.10;99.90
15143;DHT22;7672;50.834;6.286;2023-03-24T02:00:00;15.10;99.90
15143;DHT22;7672;50.834;6.286;2023-03-24T02:02:33;15.10;99.90
15143;DHT22;7672;50.834;6.286;2023-03-24T02:05:04;15.10;99.90
15143;DHT22;7672;50.834;6.286;2023-03-24T02:07:49;15.10;99.90
15143;DHT22;7672;50.834;6.286;2023-03-24T02:10:20;15.10;99.90
15143;DHT22;7672;50.834;6.286;2023-03-24T02:12:49;15.20;99.90
15143;DHT22;7672;50.834;6.286;2023-03-24T02:15:17;15.20;99.90
15143;DHT22;7672;50.834;6.286;2023-03-24T02:30:37;15.30;99.90
15143;DHT22;7672;50.834;6.286;2023-03-24T02:33:20;15.40;99.90
15143;DHT22;7672;50.834;6.286;2023-03-24T02:36:20;15.40;99.90
15143;DHT22;7672;50.834;6.286;2023-03-24T02:51:06;15.60;99.90
15143;DHT22;7672;50.834;6.286;2023-03-24T02:56:52;15.60;99.90
15143;DHT22;7672;50.834;6.286;2023-03-24T03:02:32;15.50;99.90
15143;DHT22;7672;50.834;6.286;2023-03-24T03:05:10;15.60;99.90
15143;DHT22;7672;50.834;6.286;2023-03-24T03:07:43;15.60;99.90
15143;DHT22;7672;50.834;6.286;2023-03-24T03:10:31;15.60;99.90
15143;DHT22;7672;50.834;6.286;2023-03-24T03:13:15;15.60;99.90
15143;DHT22;7672;50.834;6.286;2023-03-24T03:15:50;15.40;99.90
15143;DHT22;7672;50.834;6.286;2023-03-24T03:18:39;15.60;99.90
15143;DHT22;7672;50.834;6.286;2023-03-24T03:21:12;15.60;99.90
15143;DHT22;7672;50.834;6.286;2023-03-24T03:23:48;15.60;99.90
15143;DHT22;7672;50.834;6.286;2023-03-24T03:26:21;15.60;99.90
15143;DHT22;7672;50.834;6.286;2023-03-24T03:28:55;15.60;99.90
15143;DHT22;7672;50.834;6.286;2023-03-24T03:31:33;15.60;99.90
15143;DHT22;7672;50.834;6.286;2023-03-24T03:40:11;15.60;99.90
15143;DHT22;7672;50.834;6.286;2023-03-24T03:42:43;15.60;99.90
15143;DHT22;7672;50.834;6.286;2023-03-24T03:45:11;15.70;99.90
15143;DHT22;7672;50.834;6.286;2023-03-24T03:47:39;15.60;99.90
15143;DHT22;7672;50.834;6.286;2023-03-24T03:50:07;15.60;99.90
15143;DHT22;7672;50.834;6.286;2023-03-24T03:52:37;15.70;99.90
15143;DHT22;7672;50.834;6.286;2023-03-24T03:55:05;15.70;99.90
15143;DHT22;7672;50.834;6.286;2023-03-24T03:57:34;15.70;99.90
15143;DHT22;7672;50.834;6.286;2023-03-24T04:00:04;15.70;99.90
15143;DHT22;7672;50.834;6.286;2023-03-24T04:03:00;15.70;99.90
15143;DHT22;7672;50.834;6.286;2023-03-24T04:06:13;15.70;99.90
15143;DHT22;7672;50.834;6.286;2023-03-24T04:15:28;15.60;99.90
15143;DHT22;7672;50.834;6.286;2023-03-24T04:20:58;15.60;99.90
15143;DHT22;7672;50.834;6.286;2023-03-24T04:23:57;15.50;99.90
15143;DHT22;7672;50.834;6.286;2023-03-24T04:27:11;15.40;99.90
15143;DHT22;7672;50.834;6.286;2023-03-24T04:32:39;15.10;99.90
15143;DHT22;7672;50.834;6.286;2023-03-24T04:35:39;15.00;99.90
15143;DHT22;7672;50.834;6.286;2023-03-24T04:38:14;14.90;99.90
15143;DHT22;7672;50.834;6.286;2023-03-24T04:40:54;14.90;99.90
15143;DHT22;7672;50.834;6.286;2023-03-24T04:43:26;14.80;99.90
15143;DHT22;7672;50.834;6.286;2023-03-24T04:46:06;14.70;99.90
15143;DHT22;7672;50.834;6.286;2023-03-24T04:48:35;14.70;99.90
15143;DHT22;7672;50.834;6.286;2023-03-24T04:51:02;14.60;99.90
15143;DHT22;7672;50.834;6.286;2023-03-24T04:53:30;14.50;99.90
15143;DHT22;7672;50.834;6.286;2023-03-24T04:58:47;14.30;99.90
15143;DHT22;7672;50.834;6.286;2023-03-24T05:01:15;14.20;99.90
15143;DHT22;7672;50.834;6.286;2023-03-24T05:03:42;14.10;99.90
15143;DHT22;7672;50.834;6.286;2023-03-24T05:06:11;14.00;99.90
15143;DHT22;7672;50.834;6.286;2023-03-24T05:08:38;14.00;99.90
15143;DHT22;7672;50.834;6.286;2023-03-24T05:11:06;13.90;99.90
15143;DHT22;7672;50.834;6.286;2023-03-24T05:13:33;13.80;99.90
15143;DHT22;7672;50.834;6.286;2023-03-24T05:15:59;13.70;99.90
15143;DHT22;7672;50.834;6.286;2023-03-24T05:18:26;14.30;99.90
15143;DHT22;7672;50.834;6.286;2023-03-24T05:20:53;13.60;99.90
15143;DHT22;7672;50.834;6.286;2023-03-24T05:23:20;13.50;99.90
15143;DHT22;7672;50.834;6.286;2023-03-24T05:25:47;13.40;99.90
15143;DHT22;7672;50.834;6.286;2023-03-24T05:28:13;13.40;99.90
15143;DHT22;7672;50.834;6.286;2023-03-24T05:30:41;13.30;99.90
15143;DHT22;7672;50.834;6.286;2023-03-24T05:33:08;13.20;99.90
15143;DHT22;7672;50.834;6.286;2023-03-24T05:35:36;13.20;99.90
15143;DHT22;7672;50.834;6.286;2023-03-24T05:38:04;13.10;99.90
15143;DHT22;7672;50.834;6.286;2023-03-24T05:40:37;13.00;99.90
15143;DHT22;7672;50.834;6.286;2023-03-24T05:43:07;13.00;99.90
15143;DHT22;7672;50.834;6.286;2023-03-24T05:45:35;12.90;99.90
15143;DHT22;7672;50.834;6.286;2023-03-24T05:48:03;12.80;99.90
15143;DHT22;7672;50.834;6.286;2023-03-24T05:50:32;12.80;99.90
15143;DHT22;7672;50.834;6.286;2023-03-24T05:53:00;12.80;99.90
15143;DHT22;7672;50.834;6.286;2023-03-24T05:55:28;12.70;99.90
15143;DHT22;7672;50.834;6.286;2023-03-24T05:57:56;12.60;99.90
15143;DHT22;7672;50.834;6.286;2023-03-24T06:00:28;12.60;99.90
15143;DHT22;7672;50.834;6.286;2023-03-24T06:02:58;12.60;99.90
15143;DHT22;7672;50.834;6.286;2023-03-24T06:05:26;12.50;99.90
15143;DHT22;7672;50.834;6.286;2023-03-24T06:07:54;12.50;99.90
15143;DHT22;7672;50.834;6.286;2023-03-24T06:10:25;12.50;99.90
15143;DHT22;7672;50.834;6.286;2023-03-24T06:12:54;12.50;99.90
15143;DHT22;7672;50.834;6.286;2023-03-24T06:15:23;12.40;99.90
15143;DHT22;7672;50.834;6.286;2023-03-24T06:17:53;12.40;99.90
15143;DHT22;7672;50.834;6.286;2023-03-24T06:20:21;12.50;99.90
15143;DHT22;7672;50.834;6.286;2023-03-24T06:22:52;12.40;99.90
15143;DHT22;7672;50.834;6.286;2023-03-24T06:25:24;12.40;99.90
15143;DHT22;7672;50.834;6.286;2023-03-24T06:27:54;12.40;99.90
15143;DHT22;7672;50.834;6.286;2023-03-24T06:30:21;12.40;99.90
15143;DHT22;7672;50.834;6.286;2023-03-24T06:32:48;12.40;99.90
15143;DHT22;7672;50.834;6.286;2023-03-24T06:35:16;12.40;99.90
15143;DHT22;7672;50.834;6.286;2023-03-24T06:37:43;12.40;99.90
15143;DHT22;7672;50.834;6.286;2023-03-24T06:40:11;12.50;99.90
15143;DHT22;7672;50.834;6.286;2023-03-24T06:42:40;12.50;99.90
15143;DHT22;7672;50.834;6.286;2023-03-24T06:45:08;12.50;99.90
15143;DHT22;7672;50.834;6.286;2023-03-24T06:47:35;12.60;99.90
15143;DHT22;7672;50.834;6.286;2023-03-24T06:50:04;12.60;99.90
15143;DHT22;7672;50.834;6.286;2023-03-24T06:52:33;12.60;99.90
15143;DHT22;7672;50.834;6.286;2023-03-24T06:55:01;12.70;99.90
15143;DHT22;7672;50.834;6.286;2023-03-24T06:57:28;12.60;99.90
15143;DHT22;7672;50.834;6.286;2023-03-24T06:59:55;12.70;99.90
15143;DHT22;7672;50.834;6.286;2023-03-24T07:02:22;12.70;99.90
15143;DHT22;7672;50.834;6.286;2023-03-24T07:04:50;12.80;99.90
15143;DHT22;7672;50.834;6.286;2023-03-24T07:07:20;12.80;99.90
15143;DHT22;7672;50.834;6.286;2023-03-24T07:10:08;12.90;99.90
15143;DHT22;7672;50.834;6.286;2023-03-24T07:12:37;13.10;99.90
15143;DHT22;7672;50.834;6.286;2023-03-24T07:15:06;13.40;99.90
15143;DHT22;7672;50.834;6.286;2023-03-24T07:17:36;13.70;99.90
15143;DHT22;7672;50.834;6.286;2023-03-24T07:20:07;14.00;99.90
15143;DHT22;7672;50.834;6.286;2023-03-24T07:23:00;14.50;99.90
15143;DHT22;7672;50.834;6.286;2023-03-24T07:25:28;15.00;99.90
15143;DHT22;7672;50.834;6.286;2023-03-24T07:28:04;15.30;99.90
15143;DHT22;7672;50.834;6.286;2023-03-24T07:30:31;15.70;99.90
15143;DHT22;7672;50.834;6.286;2023-03-24T07:33:07;16.00;99.90
15143;DHT22;7672;50.834;6.286;2023-03-24T07:35:41;16.30;99.90
15143;DHT22;7672;50.834;6.286;2023-03-24T07:38:09;16.60;99.90
15143;DHT22;7672;50.834;6.286;2023-03-24T07:40:37;16.90;99.90
15143;DHT22;7672;50.834;6.286;2023-03-24T07:43:04;17.00;99.90
15143;DHT22;7672;50.834;6.286;2023-03-24T07:45:32;17.10;99.90
15143;DHT22;7672;50.834;6.286;2023-03-24T07:48:02;17.20;99.90
15143;DHT22;7672;50.834;6.286;2023-03-24T07:50:30;17.10;99.90
15143;DHT22;7672;50.834;6.286;2023-03-24T07:53:00;17.10;99.90
15143;DHT22;7672;50.834;6.286;2023-03-24T07:55:28;17.10;99.90
15143;DHT22;7672;50.834;6.286;2023-03-24T07:57:57;17.20;99.90
15143;DHT22;7672;50.834;6.286;2023-03-24T08:00:25;17.50;99.90
15143;DHT22;7672;50.834;6.286;2023-03-24T08:02:52;17.90;99.90
15143;DHT22;7672;50.834;6.286;2023-03-24T08:05:21;18.40;99.90
15143;DHT22;7672;50.834;6.286;2023-03-24T08:07:50;18.90;99.90
15143;DHT22;7672;50.834;6.286;2023-03-24T08:10:24;19.50;99.90
15143;DHT22;7672;50.834;6.286;2023-03-24T08:12:52;20.10;99.90
15143;DHT22;7672;50.834;6.286;2023-03-24T08:15:20;20.70;99.90
15143;DHT22;7672;50.834;6.286;2023-03-24T08:17:48;21.30;99.90
15143;DHT22;7672;50.834;6.286;2023-03-24T08:20:19;21.70;99.90
15143;DHT22;7672;50.834;6.286;2023-03-24T08:22:51;21.90;99.90
15143;DHT22;7672;50.834;6.286;2023-03-24T08:25:22;22.10;99.90
15143;DHT22;7672;50.834;6.286;2023-03-24T08:27:54;22.10;99.90
15143;DHT22;7672;50.834;6.286;2023-03-24T08:30:23;22.00;99.90
15143;DHT22;7672;50.834;6.286;2023-03-24T08:32:57;22.00;99.90
15143;DHT22;7672;50.834;6.286;2023-03-24T08:35:32;22.10;99.90
15143;DHT22;7672;50.834;6.286;2023-03-24T08:38:04;22.10;99.90
15143;DHT22;7672;50.834;6.286;2023-03-24T08:40:34;22.20;99.90
15143;DHT22;7672;50.834;6.286;2023-03-24T08:43:04;22.10;99.90
15143;DHT22;7672;50.834;6.286;2023-03-24T08:45:36;22.20;99.90
15143;DHT22;7672;50.834;6.286;2023-03-24T08:48:06;22.20;99.90
15143;DHT22;7672;50.834;6.286;2023-03-24T08:50:38;22.40;99.90
15143;DHT22;7672;50.834;6.286;2023-03-24T08:53:08;22.50;99.90
15143;DHT22;7672;50.834;6.286;2023-03-24T08:55:40;22.60;99.90
15143;DHT22;7672;50.834;6.286;2023-03-24T08:58:15;22.70;99.90
15143;DHT22;7672;50.834;6.286;2023-03-24T09:00:45;22.80;99.90
15143;DHT22;7672;50.834;6.286;2023-03-24T09:03:16;22.90;99.90
15143;DHT22;7672;50.834;6.286;2023-03-24T09:05:48;23.10;99.90
15143;DHT22;7672;50.834;6.286;2023-03-24T09:08:18;23.40;99.90
15143;DHT22;7672;50.834;6.286;2023-03-24T09:11:23;23.70;99.90
15143;DHT22;7672;50.834;6.286;2023-03-24T09:14:47;24.10;99.90
15143;DHT22;7672;50.834;6.286;2023-03-24T09:17:18;24.50;99.90
15143;DHT22;7672;50.834;6.286;2023-03-24T09:19:45;24.80;99.90
15143;DHT22;7672;50.834;6.286;2023-03-24T09:22:13;25.10;99.90
15143;DHT22;7672;50.834;6.286;2023-03-24T09:24:40;25.40;99.90
15143;DHT22;7672;50.834;6.286;2023-03-24T09:27:07;25.60;99.90
15143;DHT22;7672;50.834;6.286;2023-03-24T09:29:35;25.80;99.90
15143;DHT22;7672;50.834;6.286;2023-03-24T09:32:03;26.00;99.90
15143;DHT22;7672;50.834;6.286;2023-03-24T09:34:32;26.10;99.90
15143;DHT22;7672;50.834;6.286;2023-03-24T09:37:00;26.10;99.90
15143;DHT22;7672;50.834;6.286;2023-03-24T09:39:27;26.20;99.90
15143;DHT22;7672;50.834;6.286;2023-03-24T09:41:55;26.30;99.90
15143;DHT22;7672;50.834;6.286;2023-03-24T09:44:36;26.50;99.90
15143;DHT22;7672;50.834;6.286;2023-03-24T09:47:20;26.70;99.90
15143;DHT22;7672;50.834;6.286;2023-03-24T09:50:03;27.10;99.90
15143;DHT22;7672;50.834;6.286;2023-03-24T09:52:42;27.50;99.90
15143;DHT22;7672;50.834;6.286;2023-03-24T09:55:21;27.90;98.90
15143;DHT22;7672;50.834;6.286;2023-03-24T09:57:53;28.20;98.00
15143;DHT22;7672;50.834;6.286;2023-03-24T10:00:26;28.30;97.10
15143;DHT22;7672;50.834;6.286;2023-03-24T10:03:09;28.40;96.00
15143;DHT22;7672;50.834;6.286;2023-03-24T10:05:57;28.40;94.70
15143;DHT22;7672;50.834;6.286;2023-03-24T10:08:33;28.30;94.50
15143;DHT22;7672;50.834;6.286;2023-03-24T10:11:14;28.00;94.30
15143;DHT22;7672;50.834;6.286;2023-03-24T10:19:36;27.20;94.10
15143;DHT22;7672;50.834;6.286;2023-03-24T10:22:24;27.00;93.70
15143;DHT22;7672;50.834;6.286;2023-03-24T10:25:44;26.70;93.60
15143;DHT22;7672;50.834;6.286;2023-03-24T10:31:00;26.10;93.30
15143;DHT22;7672;50.834;6.286;2023-03-24T10:33:32;25.90;93.20
15143;DHT22;7672;50.834;6.286;2023-03-24T10:38:34;25.70;93.40
15143;DHT22;7672;50.834;6.286;2023-03-24T10:41:01;25.60;94.10
15143;DHT22;7672;50.834;6.286;2023-03-24T10:43:29;25.60;93.80
15143;DHT22;7672;50.834;6.286;2023-03-24T10:45:58;25.70;94.50
15143;DHT22;7672;50.834;6.286;2023-03-24T10:48:48;25.80;93.70
15143;DHT22;7672;50.834;6.286;2023-03-24T10:51:26;25.90;93.80
15143;DHT22;7672;50.834;6.286;2023-03-24T10:54:21;26.00;93.20
15143;DHT22;7672;50.834;6.286;2023-03-24T11:02:25;26.00;92.90
15143;DHT22;7672;50.834;6.286;2023-03-24T11:05:00;25.90;93.50
15143;DHT22;7672;50.834;6.286;2023-03-24T11:07:40;26.10;93.80
15143;DHT22;7672;50.834;6.286;2023-03-24T11:12:41;26.10;93.20
15143;DHT22;7672;50.834;6.286;2023-03-24T11:15:27;26.20;93.30
15143;DHT22;7672;50.834;6.286;2023-03-24T11:20:38;26.70;93.00
15143;DHT22;7672;50.834;6.286;2023-03-24T11:23:38;26.90;92.70
15143;DHT22;7672;50.834;6.286;2023-03-24T11:26:12;27.10;92.50
15143;DHT22;7672;50.834;6.286;2023-03-24T11:29:06;27.30;91.60
15143;DHT22;7672;50.834;6.286;2023-03-24T11:31:37;27.40;91.60
15143;DHT22;7672;50.834;6.286;2023-03-24T11:34:11;27.40;91.50
15143;DHT22;7672;50.834;6.286;2023-03-24T11:36:47;27.30;89.80
15143;DHT22;7672;50.834;6.286;2023-03-24T11:39:37;27.10;88.60
15143;DHT22;7672;50.834;6.286;2023-03-24T11:42:13;26.80;87.80
15143;DHT22;7672;50.834;6.286;2023-03-24T11:44:48;26.30;87.60
15143;DHT22;7672;50.834;6.286;2023-03-24T11:47:30;25.90;89.50
15143;DHT22;7672;50.834;6.286;2023-03-24T11:50:15;25.50;88.70
15143;DHT22;7672;50.834;6.286;2023-03-24T12:01:06;24.60;90.80
15143;DHT22;7672;50.834;6.286;2023-03-24T12:09:53;24.20;91.30
15143;DHT22;7672;50.834;6.286;2023-03-24T12:37:06;23.40;92.30
15143;DHT22;7672;50.834;6.286;2023-03-24T12:42:42;23.40;93.10
15143;DHT22;7672;50.834;6.286;2023-03-24T12:54:08;23.50;91.10
15143;DHT22;7672;50.834;6.286;2023-03-24T12:56:58;23.40;91.50
15143;DHT22;7672;50.834;6.286;2023-03-24T12:59:52;23.20;91.80
15143;DHT22;7672;50.834;6.286;2023-03-24T13:02:38;23.00;91.70
15143;DHT22;7672;50.834;6.286;2023-03-24T13:05:30;22.80;91.80
15143;DHT22;7672;50.834;6.286;2023-03-24T13:08:12;22.60;92.00
15143;DHT22;7672;50.834;6.286;2023-03-24T13:10:44;22.40;92.30
15143;DHT22;7672;50.834;6.286;2023-03-24T13:13:22;22.20;91.90
15143;DHT22;7672;50.834;6.286;2023-03-24T13:16:02;22.00;92.20
15143;DHT22;7672;50.834;6.286;2023-03-24T13:18:38;21.80;93.90
15143;DHT22;7672;50.834;6.286;2023-03-24T13:21:13;21.70;94.60
15143;DHT22;7672;50.834;6.286;2023-03-24T13:23:59;21.70;94.30
15143;DHT22;7672;50.834;6.286;2023-03-24T13:26:41;21.40;94.20
15143;DHT22;7672;50.834;6.286;2023-03-24T13:34:54;21.00;96.30
15143;DHT22;7672;50.834;6.286;2023-03-24T13:37:28;20.80;97.80
15143;DHT22;7672;50.834;6.286;2023-03-24T13:40:08;20.60;98.30
15143;DHT22;7672;50.834;6.286;2023-03-24T13:42:53;20.20;99.00
15143;DHT22;7672;50.834;6.286;2023-03-24T13:45:45;19.90;99.90
15143;DHT22;7672;50.834;6.286;2023-03-24T13:48:34;19.50;99.90
15143;DHT22;7672;50.834;6.286;2023-03-24T13:51:17;19.20;99.90
15143;DHT22;7672;50.834;6.286;2023-03-24T13:53:54;19.00;99.90
15143;DHT22;7672;50.834;6.286;2023-03-24T13:56:33;18.70;99.90
15143;DHT22;7672;50.834;6.286;2023-03-24T14:02:50;18.30;99.90
15143;DHT22;7672;50.834;6.286;2023-03-24T14:06:02;18.10;99.90
15143;DHT22;7672;50.834;6.286;2023-03-24T14:14:19;17.70;99.90
15143;DHT22;7672;50.834;6.286;2023-03-24T14:19:42;17.50;99.90
15143;DHT22;7672;50.834;6.286;2023-03-24T14:22:22;17.50;99.90
15143;DHT22;7672;50.834;6.286;2023-03-24T14:27:43;17.50;99.90
15143;DHT22;7672;50.834;6.286;2023-03-24T14:30:25;17.40;99.90
15143;DHT22;7672;50.834;6.286;2023-03-24T14:32:57;17.40;99.90
15143;DHT22;7672;50.834;6.286;2023-03-24T14:35:38;17.40;99.90
15143;DHT22;7672;50.834;6.286;2023-03-24T14:40:45;17.40;99.90
15143;DHT22;7672;50.834;6.286;2023-03-24T14:43:28;17.40;99.90
15143;DHT22;7672;50.834;6.286;2023-03-24T14:49:12;17.50;99.90
15143;DHT22;7672;50.834;6.286;2023-03-24T14:51:56;17.50;99.90
15143;DHT22;7672;50.834;6.286;2023-03-24T14:57:29;17.50;99.90
15143;DHT22;7672;50.834;6.286;2023-03-24T15:00:07;17.60;99.90
15143;DHT22;7672;50.834;6.286;2023-03-24T15:02:54;17.60;99.90
15143;DHT22;7672;50.834;6.286;2023-03-24T15:08:17;17.60;99.90
15143;DHT22;7672;50.834;6.286;2023-03-24T15:11:04;17.60;99.90
15143;DHT22;7672;50.834;6.286;2023-03-24T15:19:22;17.60;99.90
15143;DHT22;7672;50.834;6.286;2023-03-24T15:22:05;17.60;99.90
15143;DHT22;7672;50.834;6.286;2023-03-24T15:24:40;17.60;99.90
15143;DHT22;7672;50.834;6.286;2023-03-24T15:27:17;17.60;99.90
15143;DHT22;7672;50.834;6.286;2023-03-24T15:29:57;17.60;99.90
15143;DHT22;7672;50.834;6.286;2023-03-24T15:32:27;17.50;99.90
15143;DHT22;7672;50.834;6.286;2023-03-24T15:34:59;17.50;99.90
15143;DHT22;7672;50.834;6.286;2023-03-24T15:37:39;17.40;99.90
15143;DHT22;7672;50.834;6.286;2023-03-24T15:40:30;17.30;99.90
15143;DHT22;7672;50.834;6.286;2023-03-24T15:43:04;17.20;99.90
15143;DHT22;7672;50.834;6.286;2023-03-24T15:45:43;17.10;99.90
15143;DHT22;7672;50.834;6.286;2023-03-24T15:48:22;17.00;99.90
15143;DHT22;7672;50.834;6.286;2023-03-24T15:51:00;16.80;99.90
15143;DHT22;7672;50.834;6.286;2023-03-24T15:53:29;16.70;99.90
15143;DHT22;7672;50.834;6.286;2023-03-24T15:56:28;16.60;99.90
15143;DHT22;7672;50.834;6.286;2023-03-24T16:01:37;16.40;99.90
15143;DHT22;7672;50.834;6.286;2023-03-24T16:04:14;16.30;99.90
15143;DHT22;7672;50.834;6.286;2023-03-24T16:06:50;16.20;99.90
15143;DHT22;7672;50.834;6.286;2023-03-24T16:09:21;16.10;99.90
15143;DHT22;7672;50.834;6.286;2023-03-24T16:11:53;16.00;99.90
15143;DHT22;7672;50.834;6.286;2023-03-24T16:14:23;15.80;99.90
15143;DHT22;7672;50.834;6.286;2023-03-24T16:16:57;15.70;99.90
15143;DHT22;7672;50.834;6.286;2023-03-24T16:19:25;15.60;99.90
15143;DHT22;7672;50.834;6.286;2023-03-24T16:21:54;15.50;99.90
15143;DHT22;7672;50.834;6.286;2023-03-24T16:24:22;15.40;99.90
15143;DHT22;7672;50.834;6.286;2023-03-24T16:26:48;15.20;99.90
15143;DHT22;7672;50.834;6.286;2023-03-24T16:29:23;15.10;99.90
15143;DHT22;7672;50.834;6.286;2023-03-24T16:31:52;15.00;99.90
15143;DHT22;7672;50.834;6.286;2023-03-24T16:34:22;14.90;99.90
15143;DHT22;7672;50.834;6.286;2023-03-24T16:36:51;14.80;99.90
15143;DHT22;7672;50.834;6.286;2023-03-24T16:39:22;14.70;99.90
15143;DHT22;7672;50.834;6.286;2023-03-24T16:41:50;14.70;99.90
15143;DHT22;7672;50.834;6.286;2023-03-24T16:44:18;14.60;99.90
15143;DHT22;7672;50.834;6.286;2023-03-24T16:46:47;14.60;99.90
15143;DHT22;7672;50.834;6.286;2023-03-24T16:49:17;14.50;99.90
15143;DHT22;7672;50.834;6.286;2023-03-24T16:51:46;14.50;99.90
15143;DHT22;7672;50.834;6.286;2023-03-24T16:54:13;14.50;99.90
15143;DHT22;7672;50.834;6.286;2023-03-24T16:56:41;14.50;99.90
15143;DHT22;7672;50.834;6.286;2023-03-24T16:59:08;14.40;99.90
15143;DHT22;7672;50.834;6.286;2023-03-24T17:01:38;14.40;99.90
15143;DHT22;7672;50.834;6.286;2023-03-24T17:04:15;14.40;99.90
15143;DHT22;7672;50.834;6.286;2023-03-24T17:06:49;14.30;99.90
15143;DHT22;7672;50.834;6.286;2023-03-24T17:09:20;14.30;99.90
15143;DHT22;7672;50.834;6.286;2023-03-24T17:11:53;14.20;99.90
15143;DHT22;7672;50.834;6.286;2023-03-24T17:14:32;14.20;99.90
15143;DHT22;7672;50.834;6.286;2023-03-24T17:17:00;14.10;99.90
15143;DHT22;7672;50.834;6.286;2023-03-24T17:19:28;14.10;99.90
15143;DHT22;7672;50.834;6.286;2023-03-24T17:22:01;14.00;99.90
15143;DHT22;7672;50.834;6.286;2023-03-24T17:24:40;14.00;99.90
15143;DHT22;7672;50.834;6.286;2023-03-24T17:27:14;13.90;99.90
15143;DHT22;7672;50.834;6.286;2023-03-24T17:29:44;13.80;99.90
15143;DHT22;7672;50.834;6.286;2023-03-24T17:32:12;13.80;99.90
15143;DHT22;7672;50.834;6.286;2023-03-24T17:34:44;13.70;99.90
15143;DHT22;7672;50.834;6.286;2023-03-24T17:37:14;13.70;99.90
15143;DHT22;7672;50.834;6.286;2023-03-24T17:39:47;13.60;99.90
15143;DHT22;7672;50.834;6.286;2023-03-24T17:42:15;13.60;99.90
15143;DHT22;7672;50.834;6.286;2023-03-24T17:44:44;13.50;99.90
15143;DHT22;7672;50.834;6.286;2023-03-24T17:47:20;13.40;99.90
15143;DHT22;7672;50.834;6.286;2023-03-24T17:50:04;13.40;99.90
15143;DHT22;7672;50.834;6.286;2023-03-24T17:52:41;13.30;99.90
15143;DHT22;7672;50.834;6.286;2023-03-24T17:55:13;13.30;99.90
15143;DHT22;7672;50.834;6.286;2023-03-24T17:57:44;13.20;99.90
15143;DHT22;7672;50.834;6.286;2023-03-24T18:00:17;13.20;99.90
15143;DHT22;7672;50.834;6.286;2023-03-24T18:02:45;13.10;99.90
15143;DHT22;7672;50.834;6.286;2023-03-24T18:05:12;13.10;99.90
15143;DHT22;7672;50.834;6.286;2023-03-24T18:07:41;13.00;99.90
15143;DHT22;7672;50.834;6.286;2023-03-24T18:10:11;13.00;99.90
15143;DHT22;7672;50.834;6.286;2023-03-24T18:12:40;13.00;99.90
15143;DHT22;7672;50.834;6.286;2023-03-24T18:15:07;12.80;99.90
15143;DHT22;7672;50.834;6.286;2023-03-24T18:17:34;12.80;99.90
15143;DHT22;7672;50.834;6.286;2023-03-24T18:20:02;12.80;99.90
15143;DHT22;7672;50.834;6.286;2023-03-24T18:22:36;12.90;99.90
15143;DHT22;7672;50.834;6.286;2023-03-24T18:25:11;12.90;99.90
15143;DHT22;7672;50.834;6.286;2023-03-24T18:27:40;12.90;99.90
15143;DHT22;7672;50.834;6.286;2023-03-24T18:30:11;12.90;99.90
15143;DHT22;7672;50.834;6.286;2023-03-24T18:32:58;12.90;99.90
15143;DHT22;7672;50.834;6.286;2023-03-24T18:35:33;13.00;99.90
15143;DHT22;7672;50.834;6.286;2023-03-24T18:38:19;13.00;99.90
15143;DHT22;7672;50.834;6.286;2023-03-24T18:41:44;13.00;99.90
15143;DHT22;7672;50.834;6.286;2023-03-24T18:44:16;13.00;99.90
15143;DHT22;7672;50.834;6.286;2023-03-24T18:46:45;13.00;99.90
15143;DHT22;7672;50.834;6.286;2023-03-24T18:49:26;12.90;99.90
15143;DHT22;7672;50.834;6.286;2023-03-24T18:52:06;13.00;99.90
15143;DHT22;7672;50.834;6.286;2023-03-24T18:54:36;13.00;99.90
15143;DHT22;7672;50.834;6.286;2023-03-24T18:57:05;12.90;99.90
15143;DHT22;7672;50.834;6.286;2023-03-24T18:59:35;13.00;99.90
15143;DHT22;7672;50.834;6.286;2023-03-24T19:02:12;13.00;99.90
15143;DHT22;7672;50.834;6.286;2023-03-24T19:04:46;13.00;99.90
15143;DHT22;7672;50.834;6.286;2023-03-24T19:07:15;13.00;99.90
15143;DHT22;7672;50.834;6.286;2023-03-24T19:09:50;13.00;99.90
15143;DHT22;7672;50.834;6.286;2023-03-24T19:12:17;13.00;99.90
15143;DHT22;7672;50.834;6.286;2023-03-24T19:14:44;13.10;99.90
15143;DHT22;7672;50.834;6.286;2023-03-24T19:17:11;13.10;99.90
15143;DHT22;7672;50.834;6.286;2023-03-24T19:19:38;13.10;99.90
15143;DHT22;7672;50.834;6.286;2023-03-24T19:22:07;13.10;99.90
15143;DHT22;7672;50.834;6.286;2023-03-24T19:24:34;13.10;99.90
15143;DHT22;7672;50.834;6.286;2023-03-24T19:27:01;13.10;99.90
15143;DHT22;7672;50.834;6.286;2023-03-24T19:29:28;13.10;99.90
15143;DHT22;7672;50.834;6.286;2023-03-24T19:31:54;13.10;99.90
15143;DHT22;7672;50.834;6.286;2023-03-24T19:34:21;13.20;99.90
15143;DHT22;7672;50.834;6.286;2023-03-24T19:36:49;13.20;99.90
15143;DHT22;7672;50.834;6.286;2023-03-24T19:39:17;13.20;99.90
15143;DHT22;7672;50.834;6.286;2023-03-24T19:41:44;13.10;99.90
15143;DHT22;7672;50.834;6.286;2023-03-24T19:44:11;13.20;99.90
15143;DHT22;7672;50.834;6.286;2023-03-24T19:46:38;13.10;99.90
15143;DHT22;7672;50.834;6.286;2023-03-24T19:49:05;13.40;99.90
15143;DHT22;7672;50.834;6.286;2023-03-24T19:51:32;13.10;99.90
15143;DHT22;7672;50.834;6.286;2023-03-24T19:53:58;13.00;99.90
15143;DHT22;7672;50.834;6.286;2023-03-24T19:56:25;13.00;99.90
15143;DHT22;7672;50.834;6.286;2023-03-24T19:58:52;12.90;99.90
15143;DHT22;7672;50.834;6.286;2023-03-24T20:01:19;12.90;99.90
15143;DHT22;7672;50.834;6.286;2023-03-24T20:03:47;13.30;99.90
15143;DHT22;7672;50.834;6.286;2023-03-24T20:06:14;12.80;99.90
15143;DHT22;7672;50.834;6.286;2023-03-24T20:08:43;12.70;99.90
15143;DHT22;7672;50.834;6.286;2023-03-24T20:11:11;12.70;99.90
15143;DHT22;7672;50.834;6.286;2023-03-24T20:13:37;12.80;99.90
15143;DHT22;7672;50.834;6.286;2023-03-24T20:16:04;12.80;99.90
15143;DHT22;7672;50.834;6.286;2023-03-24T20:18:32;12.70;99.90
15143;DHT22;7672;50.834;6.286;2023-03-24T20:21:00;13.00;99.90
15143;DHT22;7672;50.834;6.286;2023-03-24T20:23:27;12.70;99.90
15143;DHT22;7672;50.834;6.286;2023-03-24T20:25:57;12.60;99.90
15143;DHT22;7672;50.834;6.286;2023-03-24T20:28:26;12.60;99.90
15143;DHT22;7672;50.834;6.286;2023-03-24T20:31:00;12.60;99.90
15143;DHT22;7672;50.834;6.286;2023-03-24T20:33:29;12.60;99.90
15143;DHT22;7672;50.834;6.286;2023-03-24T20:35:56;12.60;99.90
15143;DHT22;7672;50.834;6.286;2023-03-24T20:38:24;12.60;99.90
15143;DHT22;7672;50.834;6.286;2023-03-24T20:41:02;12.50;99.90
15143;DHT22;7672;50.834;6.286;2023-03-24T20:43:35;12.50;99.90
15143;DHT22;7672;50.834;6.286;2023-03-24T20:46:06;12.50;99.90
15143;DHT22;7672;50.834;6.286;2023-03-24T20:48:35;12.50;99.90
15143;DHT22;7672;50.834;6.286;2023-03-24T20:51:02;12.80;99.90
15143;DHT22;7672;50.834;6.286;2023-03-24T20:53:29;12.40;99.90
15143;DHT22;7672;50.834;6.286;2023-03-24T20:56:03;12.40;99.90
15143;DHT22;7672;50.834;6.286;2023-03-24T20:58:34;12.40;99.90
15143;DHT22;7672;50.834;6.286;2023-03-24T21:01:09;12.30;99.90
15143;DHT22;7672;50.834;6.286;2023-03-24T21:03:38;12.30;99.90
15143;DHT22;7672;50.834;6.286;2023-03-24T21:06:07;12.30;99.90